Last 6 Hours

Alpine-Roundhouse Top 7880'

15 Minute Data | America/Los_Angeles
as of 3/29/20 1:47 PM PDT
Date & Time Temp (°F) RH (%) Dew Pt (°F) Wet Bulb (°F) Wind Dir (°) Wind Spd (mph) Wind Gust (mph) WindChill (°F)
3/29/20 - 1345 33.6 94 32.1 32.9 SE | 129 5.1 11.9 29.3
3/29/20 - 1330 33.8 94 32.3 33.1 ESE | 117 5.2 15.9 30.4
3/29/20 - 1315 34.4 94 32.8 33.6 SSE | 162 7.9 15.3 28.4
3/29/20 - 1300 34.8 93 33.1 34.0 SSE | 161 9.2 15.9 28.2
3/29/20 - 1245 34.9 93 33.1 34.0 SSE | 161 7.6 13.9 28.7
3/29/20 - 1230 34.5 93 32.8 33.7 SSE | 151 7.2 13.8 29.4
3/29/20 - 1215 35.1 93 33.2 34.2 SSE | 160 7.2 13.3 30.0
3/29/20 - 1200 35.5 92 33.5 34.5 SSE | 167 8.2 14.7 29.1
3/29/20 - 1145 34.5 93 32.7 33.7 SSE | 148 5.2 10.7 30.8
3/29/20 - 1130 34.6 94 33.1 33.8 SE | 131 6.0 13.8 28.8
3/29/20 - 1115 33.0 96 31.9 32.5 SSE | 152 6.1 14.8 27.2
3/29/20 - 1100 32.1 96 31.0 31.6 SE | 130 4.0 13.6 28.7
3/29/20 - 1045 32.0 96 30.9 31.5 SE | 140 5.2 11.7 26.7
3/29/20 - 1030 30.5 96 29.4 29.9 ESE | 121 4.1 9.8 26.5
3/29/20 - 1015 30.7 95 29.5 30.1 SSE | 150 5.3 14.4 26.2
3/29/20 - 1000 30.7 95 29.5 30.2 SSE | 161 7.1 19.3 24.1
3/29/20 - 0945 29.2 96 28.1 28.7 SSE | 160 10.7 19.7 20.3
3/29/20 - 0930 29.6 96 28.6 29.2 SSE | 167 6.6 14.5 23.5
3/29/20 - 0915 29.1 96 28.2 28.8 SSE | 167 8.3 16.8 21.0
3/29/20 - 0900 28.0 97 27.2 27.7 SSE | 152 5.1 14.1 22.7
3/29/20 - 0845 27.6 97 26.8 27.3 SSE | 155 6.8 15.0 20.6
3/29/20 - 0830 26.0 97 25.2 25.7 SSE | 149 6.2 12.7 19.4
3/29/20 - 0815 25.3 97 24.5 25.0 SE | 127 4.2 12.5 20.6
3/29/20 - 0800 24.6 97 23.8 24.3 N | 358 2.4 7.0 22.7
Max 35.5 97 33.5 34.5 - 10.7 19.7 30.8
Avg 31.4 95 30.1 30.8 - 6.3 14.0 26.0
Min 24.6 92 23.8 24.3 - 2.4 7.0 19.4